Time;durP1;ratioP1;P1;durP2;ratioP2;P2;SDS_P1;SDS_P2;PMS_P1;PMS_P2;Temp;Humidity;BMP_temperature;BMP_pressure;BME280_temperature;BME280_humidity;BME280_pressure;Samples;Min_cycle;Max_cycle;Signal;HPM_P1;HPM_P2
2022/11/29 00:02:27;;;;;;;15.30;14.00;;;9.90;62.30;;;;;;20627;6764;307510;-75
2022/11/29 00:05:03;;;;;;;14.60;13.07;;;10.20;60.60;;;;;;20812;6764;118365;-75
2022/11/29 00:07:39;;;;;;;13.60;12.33;;;10.10;60.30;;;;;;20798;6778;117401;-75
2022/11/29 00:10:15;;;;;;;13.07;11.77;;;9.60;62.50;;;;;;20812;6774;117415;-75
2022/11/29 00:12:51;;;;;;;14.10;12.67;;;9.50;62.40;;;;;;20768;6785;117344;-75
2022/11/29 00:15:26;;;;;;;17.00;15.50;;;9.30;62.90;;;;;;20509;6770;328477;-75
2022/11/29 00:18:02;;;;;;;14.00;12.60;;;9.50;63.40;;;;;;20787;6781;117516;-75
2022/11/29 00:20:37;;;;;;;14.97;12.87;;;9.50;62.80;;;;;;20776;6784;118612;-75
2022/11/29 00:23:13;;;;;;;16.98;15.38;;;9.40;63.10;;;;;;20549;6789;281295;-75
2022/11/29 00:25:49;;;;;;;16.50;14.80;;;9.50;63.50;;;;;;20712;6774;118850;-75
2022/11/29 00:28:25;;;;;;;17.58;16.00;;;9.70;63.10;;;;;;20604;6777;338448;-75
2022/11/29 00:31:00;;;;;;;17.43;14.73;;;9.60;63.10;;;;;;20872;6769;117043;-75
2022/11/29 00:33:36;;;;;;;17.43;15.10;;;9.60;62.70;;;;;;20825;6766;117691;-75
2022/11/29 00:36:12;;;;;;;20.02;17.92;;;9.40;62.90;;;;;;20482;6761;310644;-74
2022/11/29 00:38:49;;;;;;;17.33;14.83;;;9.60;63.50;;;;;;20846;6761;118627;-74
2022/11/29 00:41:24;;;;;;;15.87;14.37;;;9.50;63.00;;;;;;20828;6766;117178;-74
2022/11/29 00:44:00;;;;;;;17.30;14.03;;;9.30;63.30;;;;;;20808;6766;120692;-74
2022/11/29 00:46:35;;;;;;;15.30;13.80;;;9.20;63.80;;;;;;20663;6766;118107;-74
2022/11/29 00:49:12;;;;;;;17.42;15.82;;;9.20;64.70;;;;;;20704;6746;325544;-74
2022/11/29 00:51:47;;;;;;;16.10;14.60;;;9.20;64.70;;;;;;20898;6747;118154;-76
2022/11/29 00:54:23;;;;;;;19.33;17.53;;;9.30;64.00;;;;;;20645;6759;336767;-74
2022/11/29 00:56:58;;;;;;;17.23;15.82;;;9.50;64.20;;;;;;20688;6744;279885;-74
2022/11/29 00:59:34;;;;;;;15.00;13.57;;;9.80;63.30;;;;;;20908;6744;117313;-74
2022/11/29 01:02:10;;;;;;;13.57;12.33;;;9.70;62.70;;;;;;20740;6788;118895;-74
2022/11/29 01:04:46;;;;;;;14.45;13.25;;;9.50;63.10;;;;;;20566;6774;279879;-74
2022/11/29 01:07:22;;;;;;;13.33;12.23;;;9.60;63.70;;;;;;20825;6766;117241;-74
2022/11/29 01:09:58;;;;;;;13.47;12.17;;;9.50;63.40;;;;;;20772;6774;120947;-74
2022/11/29 01:12:33;;;;;;;16.10;14.50;;;9.30;63.70;;;;;;20660;6753;335564;-74
2022/11/29 01:15:12;;;;;;;12.33;11.30;;;9.50;64.30;;;;;;20762;6768;118368;-74
2022/11/29 01:17:45;;;;;;;12.03;10.87;;;9.50;63.80;;;;;;20808;6768;117362;-75
2022/11/29 01:20:20;;;;;;;12.27;11.23;;;9.30;64.10;;;;;;20816;6768;118400;-74
2022/11/29 01:22:56;;;;;;;10.87;9.87;;;9.20;64.50;;;;;;20824;6768;118289;-74
2022/11/29 01:25:31;;;;;;;11.30;10.20;;;9.00;64.80;;;;;;20742;6768;117244;-74
2022/11/29 01:28:07;;;;;;;13.83;12.60;;;9.10;65.50;;;;;;20594;6768;311323;-74
2022/11/29 01:30:45;;;;;;;13.60;12.43;;;9.10;65.50;;;;;;20637;6759;307289;-74
2022/11/29 01:33:19;;;;;;;13.93;12.53;;;9.50;64.50;;;;;;20608;6769;305823;-74
2022/11/29 01:35:54;;;;;;;11.88;10.98;;;9.90;63.60;;;;;;20486;6767;336835;-74
2022/11/29 01:38:30;;;;;;;10.40;9.53;;;10.10;61.60;;;;;;20823;6767;118234;-74
2022/11/29 01:41:05;;;;;;;11.63;10.43;;;10.00;61.50;;;;;;20828;6767;117214;-74
2022/11/29 01:44:11;;;;;;;12.35;11.25;;;9.70;63.00;;;;;;20585;6767;326515;-75
2022/11/29 01:46:47;;;;;;;10.07;9.23;;;9.60;63.00;;;;;;20663;6767;117425;-75
2022/11/29 01:49:30;;;;;;;12.93;11.67;;;9.60;63.00;;;;;;20680;6755;277149;-76
2022/11/29 01:52:09;;;;;;;12.77;11.70;;;9.70;63.40;;;;;;20407;6829;276624;-76
2022/11/29 01:54:44;;;;;;;10.87;9.80;;;10.00;61.70;;;;;;20814;6760;117609;-76
2022/11/29 01:57:20;;;;;;;12.05;10.95;;;9.90;62.30;;;;;;20673;6760;306028;-75
2022/11/29 01:59:56;;;;;;;11.55;10.55;;;9.90;62.70;;;;;;20672;6752;318859;-76
2022/11/29 02:02:31;;;;;;;10.37;9.57;;;10.10;61.20;;;;;;20902;6752;118374;-76
2022/11/29 02:05:07;;;;;;;11.15;10.27;;;10.00;61.10;;;;;;20589;6768;308871;-75
2022/11/29 02:07:42;;;;;;;12.53;9.40;;;10.00;61.50;;;;;;20846;6763;118612;-76
2022/11/29 02:10:18;;;;;;;12.33;11.23;;;9.80;62.90;;;;;;20643;6766;280900;-75
2022/11/29 02:13:00;;;;;;;11.00;10.20;;;9.90;62.70;;;;;;20649;6754;307622;-76
2022/11/29 02:15:42;;;;;;;11.00;10.10;;;10.20;61.40;;;;;;20722;6769;118633;-75
2022/11/29 02:18:21;;;;;;;11.97;10.97;;;10.00;61.10;;;;;;20604;6762;305373;-75
2022/11/29 02:21:02;;;;;;;12.73;11.53;;;10.00;61.40;;;;;;20602;6766;280695;-75
2022/11/29 02:23:58;;;;;;;12.90;11.80;;;10.40;60.30;;;;;;20653;6751;309273;-75
2022/11/29 02:26:57;;;;;;;10.53;9.63;;;10.40;60.30;;;;;;20712;6742;117653;-75
2022/11/29 02:30:06;;;;;;;10.23;9.33;;;10.20;60.40;;;;;;20796;6772;117753;-75
2022/11/29 02:33:01;;;;;;;10.57;9.53;;;9.80;62.20;;;;;;20916;6747;117437;-75
2022/11/29 02:35:44;;;;;;;13.85;12.52;;;9.50;63.20;;;;;;20522;6765;340649;-75
2022/11/29 02:38:39;;;;;;;10.80;9.80;;;9.60;63.60;;;;;;20884;6762;117222;-75
2022/11/29 02:41:29;;;;;;;10.90;9.90;;;9.60;63.40;;;;;;20891;6747;264110;-75
2022/11/29 02:44:30;;;;;;;10.83;9.90;;;9.40;63.80;;;;;;20161;6788;118502;-75
2022/11/29 02:47:19;;;;;;;10.93;9.93;;;9.20;64.20;;;;;;20915;6737;116769;-75
2022/11/29 02:49:58;;;;;;;13.30;12.20;;;9.30;65.10;;;;;;20104;6828;308661;-75
2022/11/29 02:53:07;;;;;;;14.10;12.90;;;9.20;65.00;;;;;;20646;6755;309043;-75
2022/11/29 02:55:43;;;;;;;10.53;9.53;;;9.60;64.10;;;;;;20717;6771;119268;-75
2022/11/29 02:58:22;;;;;;;12.90;11.70;;;9.60;63.60;;;;;;20656;6752;308815;-75
2022/11/29 03:00:57;;;;;;;13.73;12.32;;;9.70;64.00;;;;;;20707;6737;305783;-75
2022/11/29 03:03:49;;;;;;;13.17;10.70;;;9.90;63.20;;;;;;20900;6743;118540;-74
2022/11/29 03:06:26;;;;;;;10.80;9.87;;;9.60;63.50;;;;;;19725;7089;119362;-74
2022/11/29 03:09:01;;;;;;;12.77;11.57;;;9.60;63.50;;;;;;20372;6799;336243;-75
2022/11/29 03:11:37;;;;;;;11.60;10.60;;;9.70;64.00;;;;;;20310;6827;280211;-75
2022/11/29 03:14:13;;;;;;;9.53;8.80;;;10.00;62.20;;;;;;20902;6743;117442;-75
2022/11/29 03:17:04;;;;;;;9.13;8.37;;;9.90;62.90;;;;;;20705;6754;118956;-75
2022/11/29 03:20:09;;;;;;;6.80;6.30;;;9.70;63.50;;;;;;20897;6741;116637;-75
2022/11/29 03:23:15;;;;;;;9.60;8.80;;;9.40;64.10;;;;;;20677;6741;305577;-75
2022/11/29 03:25:52;;;;;;;8.10;7.40;;;9.60;63.70;;;;;;20776;6741;127746;-75
2022/11/29 03:28:27;;;;;;;9.20;8.40;;;9.60;63.70;;;;;;20628;6759;298502;-75
2022/11/29 03:31:09;;;;;;;9.53;7.43;;;9.70;63.70;;;;;;20845;6761;119271;-75
2022/11/29 03:33:44;;;;;;;8.30;6.30;;;9.60;63.40;;;;;;20717;6846;117741;-75
2022/11/29 03:36:42;;;;;;;7.82;7.15;;;9.40;63.80;;;;;;20501;6776;278887;-75
2022/11/29 03:39:18;;;;;;;7.37;6.72;;;9.60;64.20;;;;;;20609;6768;336327;-75
2022/11/29 03:42:04;;;;;;;6.30;5.70;;;9.90;63.10;;;;;;20788;6822;116835;-75
2022/11/29 03:44:42;;;;;;;7.03;5.80;;;9.80;62.80;;;;;;20788;6773;118030;-75
2022/11/29 03:47:15;;;;;;;6.60;6.10;;;9.60;63.30;;;;;;20652;6751;307198;-76
2022/11/29 03:49:53;;;;;;;6.75;6.15;;;9.70;63.70;;;;;;20617;6754;306809;-75
2022/11/29 03:52:46;;;;;;;5.90;5.40;;;9.90;62.60;;;;;;20858;6754;117407;-76
2022/11/29 03:55:42;;;;;;;6.70;6.10;;;9.90;62.50;;;;;;20531;6759;281089;-75
2022/11/29 03:58:33;;;;;;;6.85;6.25;;;10.00;61.80;;;;;;20279;6807;307685;-74
2022/11/29 04:01:15;;;;;;;5.30;4.80;;;10.30;61.00;;;;;;20916;6742;116912;-74
2022/11/29 04:04:14;;;;;;;5.00;4.57;;;10.10;60.80;;;;;;20886;6744;118070;-74
2022/11/29 04:06:53;;;;;;;4.40;4.00;;;9.80;62.50;;;;;;20664;6759;117775;-74
2022/11/29 04:09:55;;;;;;;4.70;3.57;;;9.50;63.30;;;;;;20827;6759;118548;-74
2022/11/29 04:12:47;;;;;;;6.43;3.60;;;9.30;63.90;;;;;;20781;6777;116982;-75
2022/11/29 04:15:32;;;;;;;5.47;4.97;;;9.10;64.30;;;;;;20448;6789;339869;-74
2022/11/29 04:18:25;;;;;;;6.80;4.33;;;9.40;64.70;;;;;;20814;6759;117432;-74
2022/11/29 04:21:23;;;;;;;5.40;4.90;;;9.40;64.00;;;;;;20551;6780;310906;-75
2022/11/29 04:24:19;;;;;;;5.83;5.30;;;9.60;63.90;;;;;;20589;6765;307222;-75
2022/11/29 04:27:05;;;;;;;6.13;5.53;;;10.30;61.00;;;;;;20520;6798;309095;-74
2022/11/29 04:29:44;;;;;;;5.13;4.73;;;10.30;60.90;;;;;;20830;6759;118350;-75
2022/11/29 04:33:00;;;;;;;5.93;4.90;;;10.20;61.10;;;;;;20632;6762;305655;-75
2022/11/29 04:35:50;;;;;;;5.00;4.00;;;10.00;61.70;;;;;;20826;6748;118257;-76
2022/11/29 04:38:52;;;;;;;4.30;3.70;;;9.90;61.90;;;;;;20823;6763;117294;-77
2022/11/29 04:41:51;;;;;;;4.07;3.60;;;9.70;62.70;;;;;;20762;6774;117132;-74
2022/11/29 04:44:46;;;;;;;5.17;4.33;;;9.40;63.30;;;;;;20600;6770;310514;-77
2022/11/29 04:47:25;;;;;;;5.07;4.43;;;10.00;61.60;;;;;;20662;6754;306910;-75
2022/11/29 04:50:17;;;;;;;6.43;4.00;;;9.90;62.50;;;;;;20774;6771;117963;-74
2022/11/29 04:53:15;;;;;;;5.67;3.43;;;9.90;62.20;;;;;;20796;6776;117634;-74
2022/11/29 04:56:21;;;;;;;4.43;3.92;;;9.70;62.80;;;;;;20451;6770;309784;-75
2022/11/29 04:59:01;;;;;;;3.83;3.40;;;9.70;62.60;;;;;;20817;6760;116798;-75
2022/11/29 05:01:37;;;;;;;5.75;4.30;;;9.70;62.60;;;;;;20528;6784;279393;-76
2022/11/29 05:04:23;;;;;;;7.05;4.20;;;9.80;62.80;;;;;;20541;6780;337216;-75
2022/11/29 05:07:22;;;;;;;4.82;4.15;;;10.10;61.10;;;;;;20007;6837;309235;-75
2022/11/29 05:10:14;;;;;;;3.80;3.50;;;10.30;60.10;;;;;;20748;6784;117016;-75
2022/11/29 05:13:22;;;;;;;4.47;4.00;;;10.10;60.00;;;;;;20755;6787;119259;-75
2022/11/29 05:16:07;;;;;;;5.40;3.53;;;9.80;61.70;;;;;;20678;6756;117930;-75
2022/11/29 05:19:24;;;;;;;6.53;4.30;;;9.50;62.50;;;;;;20725;6731;289564;-75
2022/11/29 05:22:12;;;;;;;4.53;3.60;;;9.50;62.60;;;;;;20911;6731;116401;-76
2022/11/29 05:24:55;;;;;;;5.10;3.40;;;9.30;63.60;;;;;;20911;6731;117923;-75
2022/11/29 05:27:50;;;;;;;4.77;3.00;;;9.30;63.00;;;;;;20935;6731;116709;-74
2022/11/29 05:30:26;;;;;;;3.47;3.17;;;9.10;64.00;;;;;;20931;6731;116699;-75
2022/11/29 05:33:22;;;;;;;5.43;3.20;;;9.00;63.90;;;;;;20936;6731;117115;-74
2022/11/29 05:36:19;;;;;;;6.17;3.40;;;9.00;64.30;;;;;;20805;6731;117792;-77
2022/11/29 05:39:08;;;;;;;6.73;3.33;;;8.80;64.70;;;;;;20778;6787;119088;-77
2022/11/29 05:42:07;;;;;;;6.43;2.80;;;8.80;64.70;;;;;;20915;6731;117922;-77
2022/11/29 05:44:43;;;;;;;7.20;3.30;;;8.80;64.90;;;;;;20702;6731;308850;-76
2022/11/29 05:47:21;;;;;;;4.23;2.97;;;9.20;64.50;;;;;;20926;6731;117575;-75
2022/11/29 05:49:57;;;;;;;5.62;3.30;;;9.30;63.80;;;;;;20703;6731;306085;-76
2022/11/29 05:52:43;;;;;;;6.95;3.37;;;9.90;62.10;;;;;;20725;6731;303725;-81
2022/11/29 05:55:32;;;;;;;5.93;2.73;;;9.90;62.10;;;;;;20878;6731;116564;-75
2022/11/29 05:58:16;;;;;;;6.03;3.07;;;9.90;61.70;;;;;;20935;6730;119493;-82
2022/11/29 06:00:50;;;;;;;6.53;2.90;;;9.60;62.10;;;;;;20952;6731;116680;-78
2022/11/29 06:03:42;;;;;;;5.17;2.77;;;9.40;62.70;;;;;;20925;6787;116619;-77
2022/11/29 06:06:25;;;;;;;4.10;2.67;;;9.20;63.10;;;;;;19711;7089;119594;-79
2022/11/29 06:09:07;;;;;;;7.10;3.40;;;9.10;63.60;;;;;;20737;6731;307272;-79
2022/11/29 06:12:01;;;;;;;6.75;3.65;;;9.40;63.40;;;;;;20684;6731;274864;-78
2022/11/29 06:14:40;;;;;;;7.63;3.57;;;9.80;62.40;;;;;;20915;6731;116736;-77
2022/11/29 06:17:52;;;;;;;7.18;4.87;;;9.80;61.90;;;;;;20701;6731;334573;-78
2022/11/29 06:20:31;;;;;;;8.30;5.90;;;9.90;62.10;;;;;;20700;6731;296157;-78
2022/11/29 06:23:22;;;;;;;8.83;6.83;;;10.20;60.50;;;;;;20695;6731;279162;-76
2022/11/29 06:26:01;;;;;;;6.60;6.00;;;10.40;59.90;;;;;;20591;6731;307922;-75
2022/11/29 06:28:43;;;;;;;6.27;5.73;;;10.60;59.40;;;;;;20932;6731;117225;-75
2022/11/29 06:31:36;;;;;;;8.63;6.13;;;10.30;59.40;;;;;;20915;6787;118433;-75
2022/11/29 06:34:30;;;;;;;8.03;5.37;;;10.00;60.20;;;;;;20919;6731;119785;-76
2022/11/29 06:37:13;;;;;;;7.67;5.33;;;9.40;62.60;;;;;;20852;6757;118182;-76
2022/11/29 06:39:49;;;;;;;8.30;5.73;;;9.60;63.00;;;;;;20605;6757;340644;-76
2022/11/29 06:42:25;;;;;;;5.43;4.93;;;9.60;62.90;;;;;;20857;6757;118214;-77
2022/11/29 06:45:01;;;;;;;7.80;5.55;;;9.80;62.60;;;;;;20636;6744;307488;-76
2022/11/29 06:47:43;;;;;;;8.63;5.10;;;9.80;62.60;;;;;;20621;6759;305709;-75
2022/11/29 06:50:22;;;;;;;6.10;4.67;;;10.30;60.40;;;;;;20437;6801;274633;-75
2022/11/29 06:53:05;;;;;;;6.60;4.60;;;10.50;59.10;;;;;;20683;6744;306281;-75
2022/11/29 06:55:54;;;;;;;8.07;4.33;;;10.50;58.90;;;;;;20585;6759;335795;-78
2022/11/29 06:58:49;;;;;;;5.20;4.00;;;10.70;58.30;;;;;;20665;6763;297938;-76
2022/11/29 07:01:44;;;;;;;5.87;3.43;;;10.70;57.60;;;;;;20776;6778;119184;-76
2022/11/29 07:04:44;;;;;;;6.97;4.07;;;10.40;58.40;;;;;;20603;6766;335501;-76
2022/11/29 07:07:20;;;;;;;5.60;3.20;;;10.30;58.30;;;;;;20875;6747;118392;-76
2022/11/29 07:09:58;;;;;;;7.30;3.90;;;10.10;58.50;;;;;;20596;6761;309609;-76
2022/11/29 07:12:32;;;;;;;6.67;3.73;;;10.30;58.40;;;;;;20625;6761;306768;-76
2022/11/29 07:15:08;;;;;;;6.43;3.60;;;10.30;58.40;;;;;;20540;6775;338341;-77
2022/11/29 07:17:56;;;;;;;4.73;3.20;;;10.50;57.90;;;;;;20796;6771;117004;-75
2022/11/29 07:21:02;;;;;;;7.12;3.90;;;10.30;58.00;;;;;;20540;6786;307421;-76
2022/11/29 07:24:14;;;;;;;8.95;4.80;;;10.30;58.40;;;;;;20599;6772;308026;-75
2022/11/29 07:26:53;;;;;;;6.03;4.00;;;10.50;57.90;;;;;;20420;6787;303366;-75
2022/11/29 07:29:42;;;;;;;6.37;3.73;;;10.70;57.30;;;;;;20752;6787;118764;-75
2022/11/29 07:32:23;;;;;;;6.23;3.93;;;10.50;57.50;;;;;;20617;6772;278228;-76
2022/11/29 07:35:39;;;;;;;5.23;4.17;;;10.40;58.10;;;;;;20564;6769;308866;-75
2022/11/29 07:38:31;;;;;;;7.20;3.67;;;10.60;57.90;;;;;;20758;6781;117071;-75
2022/11/29 07:41:16;;;;;;;5.37;3.53;;;10.20;58.10;;;;;;20822;6757;119247;-75
2022/11/29 07:44:01;;;;;;;6.90;4.00;;;9.90;59.90;;;;;;20643;6764;305477;-75
2022/11/29 07:46:37;;;;;;;8.53;3.50;;;9.90;60.60;;;;;;20714;6755;121135;-75
2022/11/29 07:49:19;;;;;;;9.80;4.30;;;9.80;60.50;;;;;;20654;6753;277715;-74
2022/11/29 07:51:49;;;;;;;9.50;4.30;;;9.90;61.00;;;;;;20605;6753;280871;-75
2022/11/29 07:54:29;;;;;;;6.37;3.37;;;10.20;59.80;;;;;;20804;6775;119906;-74
2022/11/29 07:57:02;;;;;;;5.43;3.93;;;9.80;60.70;;;;;;20782;6771;117143;-75
2022/11/29 07:59:38;;;;;;;6.40;3.90;;;9.70;61.00;;;;;;20537;6797;307686;-74
2022/11/29 08:02:14;;;;;;;8.40;4.17;;;9.90;61.70;;;;;;20514;6792;278775;-75
2022/11/29 08:04:49;;;;;;;8.73;4.23;;;10.10;60.10;;;;;;20597;6764;312440;-74
2022/11/29 08:07:25;;;;;;;5.47;3.67;;;10.40;59.60;;;;;;20881;6749;117601;-74
2022/11/29 08:10:00;;;;;;;7.97;4.18;;;10.20;59.40;;;;;;20599;6762;277842;-77
2022/11/29 08:12:37;;;;;;;8.13;4.07;;;10.20;59.70;;;;;;20569;6777;305052;-77
2022/11/29 08:15:13;;;;;;;6.78;4.40;;;10.40;59.20;;;;;;20514;6777;311808;-77
2022/11/29 08:17:51;;;;;;;7.07;3.60;;;10.60;58.60;;;;;;20768;6778;117365;-78
2022/11/29 08:20:24;;;;;;;8.07;4.30;;;10.40;58.60;;;;;;20667;6748;278484;-78
2022/11/29 08:23:02;;;;;;;6.40;4.10;;;10.40;59.10;;;;;;20853;6748;118109;-79
2022/11/29 08:25:36;;;;;;;8.90;4.27;;;10.20;59.60;;;;;;20535;6764;327738;-82
2022/11/29 08:28:12;;;;;;;7.57;4.30;;;10.20;59.60;;;;;;20620;6755;287280;-76
2022/11/29 08:30:48;;;;;;;10.77;4.35;;;10.50;59.30;;;;;;20592;6772;339215;-76
2022/11/29 08:33:24;;;;;;;8.87;4.23;;;10.70;58.80;;;;;;20914;6737;118119;-78
2022/11/29 08:36:09;;;;;;;8.67;4.07;;;10.50;58.80;;;;;;20751;6746;119876;-77
2022/11/29 08:38:44;;;;;;;6.33;3.30;;;10.20;59.50;;;;;;20873;6756;116182;-76
2022/11/29 08:41:23;;;;;;;8.47;4.17;;;9.80;61.00;;;;;;20624;6764;278278;-75
2022/11/29 08:43:55;;;;;;;9.20;4.28;;;9.90;61.60;;;;;;20595;6770;278325;-74
2022/11/29 08:49:27;;;;;;;13.80;11.67;;;10.20;60.10;;;;;;20912;6738;119461;-75
2022/11/29 08:54:58;;;;;;;7.43;3.70;;;9.70;62.00;;;;;;20833;6753;118124;-74
2022/11/29 08:57:33;;;;;;;5.33;4.13;;;9.50;62.60;;;;;;20804;6768;117034;-74
2022/11/29 09:00:10;;;;;;;7.27;4.50;;;9.30;63.30;;;;;;20732;6785;117205;-75
2022/11/29 09:02:46;;;;;;;6.93;4.23;;;9.30;63.30;;;;;;20814;6768;117837;-74
2022/11/29 09:05:21;;;;;;;8.32;4.50;;;9.30;63.70;;;;;;20556;6765;339249;-74
2022/11/29 09:07:58;;;;;;;7.13;4.20;;;9.70;63.40;;;;;;20829;6758;118145;-74
2022/11/29 09:10:33;;;;;;;6.80;5.12;;;9.70;63.40;;;;;;20626;6765;307164;-74
2022/11/29 09:13:12;;;;;;;6.40;4.03;;;9.90;63.00;;;;;;20776;6780;119262;-74
2022/11/29 09:15:45;;;;;;;5.27;3.73;;;9.90;62.50;;;;;;20617;6797;119626;-74
2022/11/29 09:18:21;;;;;;;8.00;5.28;;;9.80;62.90;;;;;;20580;6775;319782;-74
2022/11/29 09:20:59;;;;;;;8.33;4.03;;;10.00;61.80;;;;;;20813;6769;116852;-74
2022/11/29 09:23:31;;;;;;;8.68;5.53;;;10.00;61.40;;;;;;20625;6760;336726;-74
2022/11/29 09:26:07;;;;;;;4.87;4.47;;;10.10;61.20;;;;;;20743;6752;119551;-72
2022/11/29 09:28:42;;;;;;;4.40;3.83;;;10.10;60.90;;;;;;20862;6753;117303;-74
2022/11/29 09:31:20;;;;;;;9.13;4.60;;;10.10;62.10;;;;;;20602;6771;279206;-73
2022/11/29 09:33:55;;;;;;;10.15;8.05;;;10.50;60.70;;;;;;20518;6790;308728;-74
2022/11/29 09:36:31;;;;;;;6.90;5.80;;;10.40;60.60;;;;;;20452;6775;310160;-73
2022/11/29 09:39:08;;;;;;;9.93;7.30;;;10.70;59.70;;;;;;20796;6775;118112;-72
2022/11/29 09:42:12;;;;;;;5.20;4.47;;;10.60;59.50;;;;;;20769;6777;117080;-74
2022/11/29 09:45:08;;;;;;;9.57;6.60;;;10.40;60.60;;;;;;20566;6777;308808;-74
2022/11/29 09:48:01;;;;;;;8.67;6.53;;;10.40;60.60;;;;;;20823;6764;117072;-75
2022/11/29 09:50:36;;;;;;;9.20;7.60;;;10.40;60.50;;;;;;20627;6766;288912;-74
2022/11/29 09:53:25;;;;;;;10.33;9.33;;;10.50;60.60;;;;;;20583;6779;313678;-73
2022/11/29 09:56:03;;;;;;;8.50;7.67;;;10.70;60.00;;;;;;20432;6784;280577;-75
2022/11/29 09:58:39;;;;;;;10.50;8.10;;;11.00;59.30;;;;;;20628;6761;308094;-75
2022/11/29 10:01:27;;;;;;;8.90;6.27;;;11.20;59.00;;;;;;20529;6817;307665;-74
2022/11/29 10:04:04;;;;;;;8.20;5.90;;;11.40;58.30;;;;;;20581;6795;309648;-74
2022/11/29 10:06:39;;;;;;;9.17;6.03;;;11.40;58.30;;;;;;20688;6764;116589;-75
2022/11/29 10:09:18;;;;;;;9.02;7.15;;;11.20;58.50;;;;;;20592;6776;280331;-74
2022/11/29 10:12:16;;;;;;;9.20;7.20;;;11.20;58.80;;;;;;20615;6761;307250;-74
2022/11/29 10:15:07;;;;;;;4.00;3.70;;;11.30;58.40;;;;;;20497;6794;308858;-74
2022/11/29 10:17:50;;;;;;;3.53;3.23;;;11.50;56.80;;;;;;20573;6771;308157;-74
2022/11/29 10:20:27;;;;;;;5.20;4.32;;;11.70;55.00;;;;;;20552;6776;308869;-74
2022/11/29 10:23:19;;;;;;;8.85;5.57;;;11.70;54.90;;;;;;20491;6806;278722;-74
2022/11/29 10:25:55;;;;;;;4.93;4.53;;;11.80;55.00;;;;;;20346;6813;282056;-74
2022/11/29 10:28:30;;;;;;;4.72;4.32;;;11.90;54.10;;;;;;20543;6791;279839;-74
2022/11/29 11:46:20;;;;;;;6.70;4.60;;;12.50;54.00;;;;;;21108;6514;280927;-72
2022/11/29 11:48:49;;;;;;;5.20;4.80;;;12.50;54.00;;;;;;20537;6840;340379;-78
2022/11/29 11:51:18;;;;;;;8.17;4.90;;;12.50;53.90;;;;;;20541;6841;280802;-74
2022/11/29 11:53:44;;;;;;;7.23;4.33;;;12.20;54.10;;;;;;20659;6851;118057;-77
2022/11/29 11:56:09;;;;;;;10.53;6.00;;;12.20;54.10;;;;;;20451;6866;309037;-74
2022/11/29 11:58:35;;;;;;;82.93;11.33;;;12.10;54.70;;;;;;20463;6868;310532;-76
2022/11/29 12:01:11;;;;;;;6.33;5.00;;;12.10;54.80;;;;;;20699;6856;120591;-76
2022/11/29 12:04:00;;;;;;;9.00;6.77;;;11.90;54.90;;;;;;20448;6856;309753;-74
2022/11/29 12:06:44;;;;;;;6.10;5.60;;;11.80;55.50;;;;;;20499;6837;277390;-75
2022/11/29 12:09:17;;;;;;;6.30;5.90;;;11.90;55.50;;;;;;20564;6837;306503;-76
2022/11/29 12:11:48;;;;;;;6.80;6.30;;;12.00;55.40;;;;;;20540;6837;277365;-81
2022/11/29 12:14:17;;;;;;;5.37;5.07;;;12.10;55.30;;;;;;20760;6837;117277;-74
2022/11/29 12:16:42;;;;;;;5.40;5.10;;;11.80;55.50;;;;;;20541;6837;277286;-73
2022/11/29 12:19:18;;;;;;;5.90;5.50;;;11.80;55.80;;;;;;20560;6837;276852;-76
2022/11/29 12:25:09;;;;;;;6.47;5.97;;;11.20;57.10;;;;;;20763;6837;119693;-76
2022/11/29 12:27:35;;;;;;;7.60;7.10;;;11.20;56.70;;;;;;20531;6837;307472;-77
2022/11/29 12:30:02;;;;;;;6.03;5.53;;;11.30;57.30;;;;;;20699;6852;118508;-77
2022/11/29 12:32:27;;;;;;;6.27;5.87;;;11.20;57.20;;;;;;20647;6867;117856;-77
2022/11/29 12:35:12;;;;;;;6.40;5.90;;;11.00;57.60;;;;;;20700;6852;117207;-77
2022/11/29 12:37:38;;;;;;;5.30;5.00;;;10.80;58.00;;;;;;20617;6867;118638;-77
2022/11/29 12:40:21;;;;;;;7.00;6.60;;;10.60;58.40;;;;;;20470;6852;298397;-77
2022/11/29 12:42:56;;;;;;;8.60;8.00;;;10.80;59.10;;;;;;19432;7209;326885;-74
2022/11/29 12:45:39;;;;;;;7.10;6.60;;;11.10;58.50;;;;;;20701;6852;118496;-75
2022/11/29 12:48:14;;;;;;;7.37;6.67;;;11.00;58.20;;;;;;20650;6867;118872;-75
2022/11/29 12:50:53;;;;;;;7.80;7.20;;;10.60;59.20;;;;;;20718;6848;117488;-76
2022/11/29 12:53:32;;;;;;;6.60;6.10;;;10.40;59.70;;;;;;20743;6848;118133;-77
2022/11/29 12:56:20;;;;;;;8.63;8.03;;;10.40;59.70;;;;;;20491;6847;281407;-76
2022/11/29 12:58:56;;;;;;;10.88;10.07;;;10.60;59.80;;;;;;20517;6848;340928;-75
2022/11/29 13:01:44;;;;;;;8.83;8.03;;;11.00;59.00;;;;;;20701;6848;118226;-74
2022/11/29 13:04:42;;;;;;;7.73;7.23;;;11.00;59.20;;;;;;19639;7207;119638;-74
2022/11/29 13:07:21;;;;;;;7.97;7.47;;;10.70;59.00;;;;;;19474;7207;352503;-75
2022/11/29 13:09:53;;;;;;;8.20;7.50;;;10.90;59.40;;;;;;20058;6848;124959;-75
2022/11/29 13:12:19;;;;;;;8.37;7.80;;;10.90;59.20;;;;;;20708;6848;119397;-79
2022/11/29 13:14:44;;;;;;;9.02;8.35;;;10.70;59.30;;;;;;20735;6839;121641;-76
2022/11/29 13:17:39;;;;;;;9.60;9.00;;;10.60;59.80;;;;;;20547;6838;281693;-74
2022/11/29 13:20:18;;;;;;;9.30;8.70;;;10.70;60.30;;;;;;20703;6854;118039;-76
2022/11/29 13:22:56;;;;;;;7.87;7.37;;;10.70;59.90;;;;;;20549;6837;117768;-75
2022/11/29 13:25:24;;;;;;;10.10;9.40;;;10.60;60.20;;;;;;20511;6842;278108;-75
2022/11/29 13:27:57;;;;;;;7.80;7.30;;;10.80;60.80;;;;;;20785;6827;117808;-76
2022/11/29 13:30:22;;;;;;;9.27;8.32;;;10.80;60.20;;;;;;20574;6833;316716;-78
2022/11/29 13:33:04;;;;;;;11.33;10.33;;;10.90;60.30;;;;;;20780;6833;117531;-76
2022/11/29 13:36:06;;;;;;;8.83;8.23;;;10.90;60.00;;;;;;20548;6833;279916;-76
2022/11/29 13:38:42;;;;;;;8.53;8.00;;;11.30;59.00;;;;;;19506;7191;316175;-75
2022/11/29 13:41:28;;;;;;;6.97;6.57;;;11.30;59.00;;;;;;20337;6833;119713;-76
2022/11/29 13:43:54;;;;;;;8.00;7.50;;;11.20;59.20;;;;;;20549;6833;307818;-75
2022/11/29 13:46:27;;;;;;;7.53;7.12;;;11.20;59.20;;;;;;20569;6833;308005;-75
2022/11/29 13:48:53;;;;;;;6.27;5.87;;;11.40;58.80;;;;;;20770;6833;117307;-79
2022/11/29 13:51:19;;;;;;;7.33;6.83;;;11.20;58.60;;;;;;20787;6833;117577;-78
2022/11/29 13:53:44;;;;;;;6.57;6.20;;;10.90;59.20;;;;;;20750;6833;119324;-79
2022/11/29 13:56:17;;;;;;;7.43;6.87;;;10.70;59.90;;;;;;20788;6833;117237;-79
2022/11/29 13:58:36;;;;;;;8.67;7.97;;;10.50;60.40;;;;;;20525;6833;278475;-79
2022/11/29 14:01:01;;;;;;;9.87;9.30;;;10.60;60.70;;;;;;20564;6833;307578;-79
2022/11/29 14:03:27;;;;;;;8.33;7.73;;;10.90;60.20;;;;;;20766;6833;117207;-79
2022/11/29 14:06:09;;;;;;;8.50;7.97;;;10.90;59.80;;;;;;20545;6833;278326;-79
2022/11/29 14:08:51;;;;;;;9.23;8.63;;;10.90;59.80;;;;;;20567;6831;310313;-79
2022/11/29 14:11:23;;;;;;;7.80;7.20;;;11.20;59.60;;;;;;20743;6848;117265;-79
2022/11/29 14:14:02;;;;;;;7.47;6.97;;;11.00;59.50;;;;;;20771;6833;117772;-81
2022/11/29 14:16:34;;;;;;;6.67;6.27;;;10.70;60.10;;;;;;20794;6833;118958;-78
2022/11/29 14:19:03;;;;;;;8.20;7.70;;;10.40;60.50;;;;;;20581;6833;307728;-80
2022/11/29 14:21:52;;;;;;;7.33;6.83;;;10.50;60.60;;;;;;20754;6833;119279;-78
2022/11/29 14:24:30;;;;;;;13.53;12.43;;;10.40;60.40;;;;;;20576;6833;311006;-77
2022/11/29 14:27:11;;;;;;;17.97;16.27;;;10.50;60.50;;;;;;20775;6833;117453;-78
2022/11/29 14:32:36;;;;;;;16.90;15.30;;;10.50;60.70;;;;;;20775;6833;118307;-78
2022/11/29 14:35:11;;;;;;;14.37;13.17;;;10.40;60.60;;;;;;20778;6830;117473;-79
2022/11/29 14:38:04;;;;;;;14.17;13.17;;;10.10;61.10;;;;;;20550;6845;310292;-80
2022/11/29 14:40:39;;;;;;;10.20;9.40;;;10.20;61.80;;;;;;20811;6830;119347;-78
2022/11/29 14:43:28;;;;;;;8.93;8.27;;;10.10;61.60;;;;;;20803;6830;117518;-77
2022/11/29 14:46:14;;;;;;;11.00;10.40;;;9.90;63.00;;;;;;20525;6845;307829;-77
2022/11/29 14:48:43;;;;;;;12.00;11.20;;;10.10;62.50;;;;;;20587;6830;295546;-77
2022/11/29 14:51:15;;;;;;;10.40;9.60;;;10.40;62.10;;;;;;20745;6845;117487;-77
2022/11/29 14:53:40;;;;;;;12.50;11.65;;;10.30;61.60;;;;;;20581;6830;338041;-76
2022/11/29 14:56:29;;;;;;;17.63;16.23;;;10.40;61.70;;;;;;20508;6845;308604;-77
2022/11/29 14:59:34;;;;;;;15.80;14.40;;;10.70;61.40;;;;;;20796;6830;119463;-79
2022/11/29 15:02:11;;;;;;;11.37;10.57;;;10.50;61.10;;;;;;20733;6845;118166;-78
2022/11/29 15:04:39;;;;;;;12.13;11.23;;;9.80;63.40;;;;;;20383;6830;118913;-80
2022/11/29 15:07:04;;;;;;;11.90;10.90;;;9.80;63.40;;;;;;20753;6845;118613;-80
2022/11/29 15:09:30;;;;;;;15.50;14.30;;;9.60;64.00;;;;;;20597;6830;278518;-79
2022/11/29 15:11:56;;;;;;;18.73;17.30;;;10.10;63.30;;;;;;20501;6845;279214;-81
2022/11/29 15:14:28;;;;;;;16.90;15.60;;;10.10;63.30;;;;;;20587;6830;308087;-81